1995 INGRID (1995053S14065)


On this page: IBTrACS data - Map and Plots - Positions - Intensities - Original source data

Summary

Start Feb 21
End Mar 3
Basin SI
LMI 100 kt
Sources jtwc_sh
reunion
neumann
In WMO? Yes
Previous storm 1995 BOBBY (SI)
Previous in basin 1995 BOBBY (SI)
Concurrent storms 1995 BOBBY (SI)
1995 BOBBY (SI)
1995 INGRID (SI)
1995 VIOLET (SP)
Next in basin 1995 WARREN (SP)
Next storm 1995 VIOLET (SP)

top of page IBTrACS Data: File Access

top of page HURSAT Data: File Access

Image of storm

top of page Plots:

Map of storm track will not appear if FTP is down
Time series of cyclone Maximum Sustained Wind will not appear if FTP is down
Time series of cyclone Minimum Central Pressure will not appear if FTP is down

top of page Track Data:Position

jtwc_sh reunion neumann
Date Lat Lon Lat Lon Lat Lon
1995-02-21 18:00:00 -13.7 64.7 -13.7 64.7
1995-02-22 00:00:00 -14.1 64.7 -14.1 64.7
1995-02-22 06:00:00 -14.6 64.5 -15.7 65.5 -14.6 64.5
1995-02-22 12:00:00 -15.0 64.2 -15.7 64.7 -15.0 64.2
1995-02-22 18:00:00 -15.4 63.9 -15.6 63.8 -15.4 63.9
1995-02-23 00:00:00 -15.8 63.4 -15.6 63.1 -15.8 63.4
1995-02-23 06:00:00 -16.2 63.0 -15.5 62.2 -16.2 63.0
1995-02-23 12:00:00 -16.5 62.4 -15.6 61.5 -16.5 62.4
1995-02-23 18:00:00 -16.7 61.9 -16.0 61.1 -16.7 61.9
1995-02-24 00:00:00 -16.8 61.5 -16.1 60.7 -16.8 61.5
1995-02-24 06:00:00 -16.8 61.1 -16.1 60.4 -16.8 61.1
1995-02-24 12:00:00 -16.8 60.7 -16.6 60.3 -16.8 60.7
1995-02-24 18:00:00 -16.8 60.3 -17.0 60.1 -16.8 60.3
1995-02-25 00:00:00 -17.0 59.8 -17.2 59.8 -17.0 59.8
1995-02-25 06:00:00 -17.3 59.4 -17.5 59.6 -17.3 59.4
1995-02-25 12:00:00 -17.8 59.2 -18.0 59.5 -17.8 59.2
1995-02-25 18:00:00 -18.3 59.1 -18.5 59.4 -18.3 59.1
1995-02-26 00:00:00 -18.8 59.0 -19.0 59.3 -18.8 59.0
1995-02-26 06:00:00 -19.4 59.0 -19.5 59.2 -19.4 59.0
1995-02-26 12:00:00 -20.0 59.0 -20.3 59.3 -20.0 59.0
1995-02-26 18:00:00 -20.7 59.0 -21.0 59.0 -20.7 59.0
1995-02-27 00:00:00 -21.5 58.9 -21.6 58.9 -21.5 58.9
1995-02-27 06:00:00 -22.3 58.7 -22.5 58.8 -22.3 58.7
1995-02-27 12:00:00 -23.1 58.8 -23.1 59.1 -23.1 58.8
1995-02-27 18:00:00 -23.9 59.1 -23.8 59.4 -23.9 59.1
jtwc_sh reunion neumann
1995-02-28 00:00:00 -24.6 59.7 -24.5 59.6 -24.6 59.7
1995-02-28 06:00:00 -25.3 60.3 -25.0 59.7 -25.3 60.3
1995-02-28 12:00:00 -26.1 61.0 -25.6 60.1 -26.1 61.0
1995-02-28 18:00:00 -27.1 61.9 -26.4 60.9 -27.1 61.9
1995-03-01 00:00:00 -28.2 63.1 -28.0 62.5 -28.2 63.1
1995-03-01 06:00:00 -29.7 64.0 -29.6 64.2 -29.7 64.0
1995-03-01 12:00:00 -31.4 64.5 -30.2 64.4 -31.4 64.5
1995-03-01 18:00:00 -33.1 65.4 -31.1 64.0 -33.1 65.4
1995-03-02 00:00:00 -34.6 66.9 -31.7 63.7 -34.6 66.9
1995-03-02 06:00:00 -32.2 63.6
1995-03-02 12:00:00 -32.7 64.4
1995-03-02 18:00:00 -33.0 65.9
1995-03-03 00:00:00 -33.4 67.5
1995-03-03 06:00:00 -33.8 69.4

top of pageTrack Data:Intensity

jtwc_sh reunion neumann
Date Wind Pres Wind Pres Wind Pres
1995-02-21 18:00:00 15. 15.
1995-02-22 00:00:00 15. 15.
1995-02-22 06:00:00 15. 20. 1004. 15.
1995-02-22 12:00:00 20. 20. 1004. 20.
1995-02-22 18:00:00 20. 25. 1002. 20.
1995-02-23 00:00:00 20. 25. 1002. 20.
1995-02-23 06:00:00 25. 25. 1000. 25.
1995-02-23 12:00:00 25. 25. 1000. 25.
1995-02-23 18:00:00 30. 28. 997. 30.
1995-02-24 00:00:00 30. 30. 995. 30.
1995-02-24 06:00:00 35. 35. 992. 35.
1995-02-24 12:00:00 40. 35. 992. 40.
1995-02-24 18:00:00 45. 40. 988. 45.
1995-02-25 00:00:00 50. 45. 984. 50.
1995-02-25 06:00:00 50. 48. 980. 50.
1995-02-25 12:00:00 55. 50. 976. 55.
1995-02-25 18:00:00 60. 55. 972. 60.
1995-02-26 00:00:00 65. 60. 968. 65.
1995-02-26 06:00:00 70. 60. 968. 70.
1995-02-26 12:00:00 75. 65. 960. 75.
1995-02-26 18:00:00 75. 70. 955. 75.
1995-02-27 00:00:00 80. 75. 950. 80.
1995-02-27 06:00:00 90. 80. 945. 90.
1995-02-27 12:00:00 95. 80. 945. 95.
1995-02-27 18:00:00 95. 80. 945. 95.
jtwc_sh reunion neumann
1995-02-28 00:00:00 100. 75. 950. 100.
1995-02-28 06:00:00 95. 70. 955. 95.
1995-02-28 12:00:00 90. 65. 960. 90.
1995-02-28 18:00:00 80. 60. 968. 80.
1995-03-01 00:00:00 70. 55. 972. 70.
1995-03-01 06:00:00 60. 45. 985. 60.
1995-03-01 12:00:00 50. 50.
1995-03-01 18:00:00 45. 45.
1995-03-02 00:00:00 40. 40.
1995-03-02 06:00:00
1995-03-02 12:00:00
1995-03-02 18:00:00
1995-03-03 00:00:00
1995-03-03 06:00:00

top of page Links to source data

Source Source file Format
jtwc_sh bsh131995.txt ATCF
reunion WMO-Best-Tracks.txt:Line=17023:ingrid WMO (old format)
neumann tracks.sh:Storm=1026:INGRID:BSH131995:JTWC HURDAT